Airfield :
LOGIN :

Register | Disclaimer

   EN    FR    IT 

 










Legend :    VFR   Marginal VFR   IFR   Intensive IFR   Very Intensive IFR
Visi :
Ceiling :
>= 8 km
>= 3000ft
5 to 8 km
1000 to 3000 ft
1500m to 5 km
500 to 1000 ft
800 to 1500m
200 to 500 ft
< 800m
< 200 ft
Symbols :   Thunderstorms  Fog  Heavy snow  Heavy precipitations  Wind > 20 kt
SIGMETs :     Misc.  Thunderstorms  Icing  Turbulence  Mountain Waves  Volcanic Ashes







- Airport Elevation : 80 ft
- IATA code : LPL
- Download approach charts


EGGP - Liverpool John Lennon

CURRENT METAR :
  • 241020Z 29009KT 9999 BKN030 14/06 Q1019

EXPIRED METARs :
  • 240950Z 28010KT 9999 BKN031 14/07 Q1019
  • 240920Z 31008KT 260V340 9999 BKN035 14/08 Q1018
  • 240850Z 28009KT 9999 BKN033 14/08 Q1018
  • 240820Z 28010KT 9999 BKN034 14/07 Q1018
  • 240750Z 28008KT 9999 BKN034 13/07 Q1018

TAF TAF EGGP
Valid from the 24 at 06:00 until the 25 at 06:00 UTC


240453Z 2406/2506 30009KT 9999 SCT035
PROB40 2406/2407 8000
PROB30
TEMPO 2421/2506 6000 SHRA BKN008
ATIS : +44 151 907 2000 (option 5 or ext 5150)
Met : +44 871 750 5150
No reported NOTAMs for that airfield.



MET'MAP, your aeronautical weather chart ! - Copyright ORBIFLY December 2007 - Disclaimer

ORBIFLY MET'MAP TEAM :

Programming & Development : Alexandra Zaïnal
Concept & Development : Baudouin d'Aumeries
Co-Development & Prog : Marc-Olivier Méhu
Technical & hardware support : Manuel Goepfert

Contact : metmap@orbifly.com




SOURCES & CREDITS :

   NOAA